Tiempo atmosférico en la estación meteorológica de Segovia, Segovia (1005 m.)



Fecha
DESCASC
Temp. máxima en grados centígrados (hora)
DESCASC
Temp. mínima en grados centígrados (hora)
DESCASC
Temp. media en grados centígrados
DESCASC
Racha de viento máxima en m/sg (hora)
DESCASC
Velocidad máxima media en intervalos de 10 minutos(hora)
DESCASC
Precipitaciones diarias en mm
DESCASC
Precipitaciones de 00:00 a 06:00 en mm
DESCASC
Precipitaciones de 06:00 a 12:00 en mm
DESCASC
Precipitaciones de 12:00 a 18:00 en mm
DESCASC
Precipitaciones de 18:00 a 24:00 en mm
DESCASC
17-10-2019 19 (16:30) 7.6 (04:40) 13.3 8.33 (15:40) 5.28 (18:10) 4.2 0.4 2.6 0 1.2
16-10-2019 18.5 (17:40) 6.2 (08:30) 12.3 5.28 (19:10) 3.61 (19:10) -- 0 0 -- 0
15-10-2019 13.3 (17:30) 4.1 (05:20) 8.7 8.33 (04:10) 6.11 (02:30) 0 0 0 0 0
14-10-2019 20.3 (03:40) 5.5 (22:20) 12.9 16.67 (03:40) 10.83 (04:20) -- -- 0 4 4.4
13-10-2019 23.3 (15:20) 15.8 (00:00) 19.5 14.72 (00:20) 10.28 (00:10) 0 0 0 0 0
12-10-2019 25.3 (13:10) 17.7 (00:00) 21.5 15.28 (23:59) 10.83 (23:10) 0 0 0 0 0
10-10-2019 25.3 (17:50) 8.8 (00:00) 17 4.44 (16:50) 3.06 (22:30) 0 0 0 0 0
09-10-2019 22.9 (17:30) 13.3 (00:00) 18.1 5.83 (21:30) 3.89 (21:30) 0 0 0 0 0
08-10-2019 28.2 (16:40) 13.4 (00:00) 20.8 8.06 (17:40) 4.72 (15:20) 0 0 0 0 0
07-10-2019 25.2 (17:10) 10.7 (00:00) 18 5.28 (16:00) 3.61 (04:10) 0 0 0 0 0
06-10-2019 23.7 (17:40) 10 (00:00) 16.9 7.22 (14:00) 3.89 (19:50) 0 0 0 0 0
05-10-2019 25.1 (16:50) 10.8 (08:40) 18 6.67 (16:20) 3.89 (18:40) 0 0 0 0 0
04-10-2019 22.6 (16:40) 11 (00:00) 16.8 7.78 (14:50) 3.89 (14:40) -- 0 -- 0 0
03-10-2019 23 (16:50) 8.7 (00:00) 15.8 5.83 (16:50) 3.89 (15:00) 0 0 0 0 0
02-10-2019 18.8 (17:00) 8.6 (00:00) 13.7 5.83 (17:00) 3.33 (03:50) 0 0 0 0 0
01-10-2019 20.9 (16:30) 13.1 (00:00) 17 10.28 (16:00) 6.67 (17:40) 0.2 0 0.2 0 0
30-09-2019 27.9 (15:50) 11.4 (00:00) 19.6 7.78 (16:30) 4.17 (16:00) 0 0 0 0 0
29-09-2019 26.5 (17:40) 12.6 (00:00) 19.6 8.89 (13:30) 4.72 (13:30) 0 0 0 0 0
28-09-2019 27.2 (17:50) 9.5 (00:00) 18.4 6.39 (16:00) 3.61 (15:50) 0 0 0 0 0
27-09-2019 24.5 (16:00) 11.2 (00:00) 17.8 8.33 (16:40) 3.89 (16:40) 0 0 0 0 0
26-09-2019 26.1 (15:50) 10.3 (00:00) 18.2 8.33 (16:40) 4.72 (17:30) 0 0 0 0 0
25-09-2019 20 (16:50) 10.6 (00:00) 15.3 6.39 (01:50) 3.89 (01:50) 0 0 0 0 0
24-09-2019 21.3 (16:30) 10.7 (00:00) 16 10.28 (18:10) 6.39 (18:10) 0 0 0 0 0
23-09-2019 22.2 (16:30) 8.2 (00:00) 15.2 6.67 (16:00) 3.33 (16:40) 0 0 0 0 0
22-09-2019 18.6 (17:20) 10.5 (00:00) 14.6 14.17 (01:50) 8.06 (01:50) 2 0 2 0 0
21-09-2019 19.5 (12:50) 13.9 (00:00) 16.7 12.22 (19:10) 7.5 (19:10) 0.2 0 0 0 0.2
20-09-2019 24 (16:50) 15.8 (00:00) 19.9 15 (20:30) 10.83 (20:30) 2.6 0 0 0 2.6

Gráficas

Temp. máximas Temp. mínimas Temp. medias Precipitaciones Rachas de viento máximas Velocidades máximas media en intervalos de 10 minutos

Datos horarios

Fecha y hora oficial Temperatura (ºC) Velocidad del viento (km/h) Dirección del viento Racha (km/h) Dirección de racha Precipitación (mm) Presión (hPa) Tendencia (hPa) Humedad (%)
2019-10-19 23:00:00 -- -- -- -- -- -- -- -- --
2019-10-19 22:00:00 -- -- -- -- -- -- -- -- --
2019-10-19 21:00:00 -- -- -- -- -- -- -- -- --
2019-10-19 20:00:00 -- -- -- -- -- -- -- -- --
2019-10-19 19:00:00 -- -- -- -- -- -- -- -- --
2019-10-19 18:00:00 -- -- -- -- -- -- -- -- --
2019-10-19 17:00:00 -- -- -- -- -- -- -- -- --
2019-10-19 16:00:00 -- -- -- -- -- -- -- -- --
2019-10-19 15:00:00 -- -- -- -- -- -- -- -- --
2019-10-19 14:00:00 -- -- -- -- -- -- -- -- --
2019-10-19 13:00:00 -- -- -- -- -- -- -- -- --
2019-10-19 12:00:00 -- -- -- -- -- -- -- -- --
2019-10-19 11:00:00 -- -- -- -- -- -- -- -- --
2019-10-19 10:00:00 -- -- -- -- -- -- -- -- --
2019-10-19 09:00:00 -- -- -- -- -- -- -- -- --
2019-10-19 08:00:00 -- -- -- -- -- -- -- -- --
2019-10-19 07:00:00 -- -- -- -- -- -- -- -- --
2019-10-19 06:00:00 -- -- -- -- -- -- -- -- --
2019-10-19 05:00:00 -- -- -- -- -- -- -- -- --
2019-10-19 04:00:00 -- -- -- -- -- -- -- -- --
2019-10-19 03:00:00 -- -- -- -- -- -- -- -- --
2019-10-19 02:00:00 -- -- -- -- -- -- -- -- --
2019-10-19 01:00:00 -- -- -- -- -- -- -- -- --
2019-10-19 00:00:00 -- -- -- -- -- -- -- -- --
2019-10-18 23:00:00 -- -- -- -- -- -- -- -- --
2019-10-18 22:00:00 -- -- -- -- -- -- -- -- --
2019-10-18 21:00:00 -- -- -- -- -- -- -- -- --
2019-10-18 20:00:00 -- -- -- -- -- -- -- -- --
2019-10-18 19:00:00 -- -- -- -- -- -- -- -- --
2019-10-18 18:00:00 15.3 7 Noroeste 15 Oeste 0 900.5 -1.4 78
2019-10-18 17:00:00 16 9 Oeste 18 Noroeste 0 901.1 -1.2 75
2019-10-18 16:00:00 15.8 8 Noroeste 23 Noroeste 0 901.4 -1.8 77
2019-10-18 15:00:00 16.8 9 Oeste 18 Oeste 0 901.9 -1.5 76
2019-10-18 14:00:00 15.8 9 Oeste 15 Oeste 0 902.3 -1.4 81
2019-10-18 13:00:00 15.2 7 Oeste 15 Oeste 0 903.2 -0.5 83
2019-10-18 12:00:00 14.5 8 Oeste 16 Oeste 0 903.4 0.6 85
2019-10-18 11:00:00 13.6 8 Oeste 13 Sudoeste 0 903.7 -- 91
2019-10-18 10:00:00 13 11 Oeste 19 Oeste 0 903.7 1.7 95
2019-10-18 09:00:00 13.1 11 Oeste -- -- -- 902.8 0.5 96
2019-10-18 08:00:00 -- -- -- -- -- -- -- -- --
2019-10-18 07:00:00 14.5 8 Sudoeste 18 Sudoeste 0 902 -0.5 80
2019-10-18 06:00:00 13.9 7 Oeste 16 Oeste 0.2 902.3 -0.3 85
2019-10-18 05:00:00 14 5 Oeste 9 Oeste 0 902.2 -0.9 82
2019-10-18 04:00:00 13.8 3 Sur 8 Sur 0 902.5 -0.9 82
2019-10-18 03:00:00 14.5 8 Sur 17 Sudoeste 0 902.6 -0.8 80
2019-10-18 02:00:00 14.6 11 Sudoeste 17 Sudoeste 0 903.1 -0.4 80
2019-10-18 01:00:00 13.5 4 Este 18 Noroeste 0.2 903.4 -0.3 93
2019-10-18 00:00:00 13.9 3 Nordeste 9 Sudeste 0.6 903.4 -0.4 91
2019-10-17 23:00:00 14.4 3 Este 10 Sudeste 0 903.5 0 87
2019-10-17 22:00:00 14.4 8 Sudeste 17 Sur 0.6 903.7 0.6 87
2019-10-17 21:00:00 14.8 14 Sur 22 Sudoeste 0 903.8 0.9 83
2019-10-17 20:00:00 16.4 9 Sudoeste 15 Oeste 0 903.5 0.5 72
2019-10-17 19:00:00 17.2 11 Oeste 26 Oeste 0 903.1 -0.1 67
2019-10-17 18:00:00 18.2 15 Oeste 26 Oeste 0 902.9 -0.6 64
2019-10-17 17:00:00 18.5 12 Oeste 27 Oeste 0 903 -1.1 64
2019-10-17 16:00:00 18.3 15 Oeste 30 Oeste 0 903.2 -1.2 65
2019-10-17 15:00:00 17.4 15 Oeste 27 Oeste 0 903.5 -0.8 68
2019-10-17 14:00:00 16.4 18 Oeste 26 Oeste 0 904.1 0 73
2019-10-17 13:00:00 15.2 15 Oeste 24 Sudoeste 0 904.4 0.7 80
2019-10-17 12:00:00 14.8 13 Sudoeste 21 Sudoeste 0 904.3 1.2 83
2019-10-17 11:00:00 13.2 10 Sudoeste 21 Sudoeste 0.2 904.1 1.3 87
2019-10-17 10:00:00 12.9 11 Sudoeste 18 Sudoeste 0.2 903.7 1.4 86
2019-10-17 09:00:00 11.4 6 Sudeste 13 Sur 1.8 903.1 0.7 90
2019-10-17 08:00:00 11 4 Sudeste 11 Sudeste 0.4 902.8 0.1 84
2019-10-17 07:00:00 11.2 10 Sudeste 17 Sudeste 0 902.3 -0.5 73
2019-10-17 06:00:00 9.2 10 Sudeste 17 Sudeste 0.4 902.4 -0.1 82
2019-10-17 05:00:00 8.3 4 Este 14 Sur 0 902.7 -0.6 79
2019-10-17 04:00:00 8.4 9 Oeste 17 Este 0 902.8 -0.7 76
2019-10-17 03:00:00 9 9 Este 15 Este 0 902.5 -1.9 73
2019-10-17 02:00:00 9 6 Este 18 Este 0 903.3 -1 70
2019-10-17 01:00:00 9.2 10 Este 15 Este 0 903.5 -0.4 70
2019-10-17 00:00:00 9.8 5 Este 10 Este 0 904.4 0.4 67
2019-10-16 23:00:00 10.6 4 Este 7 Nordeste 0 904.3 0.7 65
2019-10-16 22:00:00 11.4 3 Sudoeste 15 Sudoeste 0 903.9 1.1 63
2019-10-16 21:00:00 12.8 10 Sudoeste 18 Oeste 0 904 1.4 56
2019-10-16 20:00:00 14.5 10 Oeste 19 Noroeste 0 903.6 0.8 48
2019-10-16 19:00:00 17.1 8 Noroeste 15 Noroeste 0 902.8 -0.6 37
2019-10-16 18:00:00 18.2 8 Noroeste -- -- -- 902.6 -1.6 36
2019-10-16 17:00:00 18 4 Oeste 12 Oeste 0 902.8 -2 36
2019-10-16 16:00:00 17.1 7 Noroeste 15 Oeste 0 903.4 -2 38
2019-10-16 15:00:00 15.8 7 Noroeste 16 Oeste 0 904.2 -1.5 43
2019-10-16 14:00:00 14.6 6 Noroeste 18 Oeste 0 904.8 -1.3 43
2019-10-16 13:00:00 14.1 8 Oeste 15 Oeste 0 905.4 -0.8 48
2019-10-16 12:00:00 13.1 5 Sudoeste 11 Sudoeste 0 905.7 -0.3 53
2019-10-16 11:00:00 11.2 5 Sudeste 15 Este 0 906.1 0.7 60
2019-10-16 10:00:00 9.4 9 Este 15 Este 0 906.2 1 67
2019-10-16 09:00:00 6.4 7 Nordeste 12 Este 0 906 0.8 76
2019-10-16 08:00:00 6.4 5 Este 8 Sudeste 0 905.4 -0.1 75
2019-10-16 07:00:00 6.5 4 Este 9 Sudeste 0 905.2 -0.3 74
2019-10-16 06:00:00 6.7 5 Este 13 Sudeste 0 905.2 -0.8 73
2019-10-16 05:00:00 6.8 4 Este 10 Sudeste 0 905.5 -0.6 72
2019-10-16 04:00:00 7.3 5 Este 8 Sudeste 0 905.5 -0.7 71
2019-10-16 03:00:00 8.3 5 Sudeste 11 Sudeste 0 906 -0.2 68
2019-10-16 02:00:00 9.2 6 Sudeste 11 Sur 0 906.1 -0.3 66
2019-10-16 01:00:00 9.4 10 Sudeste 13 Sudeste 0 906.2 -0.1 65
2019-10-16 00:00:00 9.5 12 Sudeste 16 Sudeste 0 906.2 -0.1 67
2019-10-15 23:00:00 8.8 15 Sudeste 18 Sudeste 0 906.4 0.3 69
2019-10-15 22:00:00 9 11 Sudeste 14 Sudeste 0 906.3 0.6 69
2019-10-15 21:00:00 10 3 Sudoeste 6 Oeste 0 906.3 0.5 62
2019-10-15 20:00:00 10.7 4 Noroeste 16 Oeste 0 906.1 0.3 61
2019-10-15 19:00:00 11.8 7 Oeste 18 Oeste 0 905.7 -0.1 54
2019-10-15 18:00:00 12.7 12 Oeste 19 Oeste 0 905.8 -0.3 48
2019-10-15 17:00:00 12.1 5 Oeste 26 Oeste 0 905.8 -0.6 52
2019-10-15 16:00:00 12.8 8 Sudoeste 19 Sudoeste 0 905.8 -0.9 55
2019-10-15 15:00:00 12 8 Sudoeste 22 Sudoeste 0 906.1 -1 56
2019-10-15 14:00:00 11.6 10 Sudoeste 21 Sudoeste 0 906.4 -0.4 58
2019-10-15 13:00:00 9.8 8 Oeste 17 Oeste 0 906.7 0.3 65
2019-10-15 12:00:00 9 8 Oeste 19 Sudoeste 0 907.1 1.3 69
2019-10-15 11:00:00 8.1 13 Sudoeste 19 Sudoeste 0 906.8 1.3 79
2019-10-15 10:00:00 6.1 8 Sur 19 Sur 0 906.4 1.3 82
2019-10-15 09:00:00 5.3 8 Sudoeste 13 Sudoeste 0 905.8 1.1 84
2019-10-15 08:00:00 4.9 12 Sudoeste 17 Sudoeste 0 905.5 1.1 86
2019-10-15 07:00:00 4.9 11 Sudoeste 16 Sudoeste 0 905.1 0.8 84
2019-10-15 06:00:00 4.7 6 Sur 14 Sudoeste 0 904.7 0.3 86
2019-10-15 05:00:00 4.4 9 Oeste 30 Oeste 0 904.4 0.3 88
2019-10-15 04:00:00 5.1 20 Oeste 28 Oeste 0 904.3 0.7 85
2019-10-15 03:00:00 5.8 17 Oeste 29 Oeste 0 904.4 1.3 85
2019-10-15 02:00:00 5.5 20 Oeste 30 Oeste 0 904.1 1.3 87
2019-10-15 01:00:00 5.9 21 Oeste 30 Sudoeste 0 903.6 1.9 87
2019-10-15 00:00:00 6.7 17 Sudoeste 24 Oeste 0 903.1 1.4 90
2019-10-14 23:00:00 6 12 Sudoeste 46 Noroeste 2 902.8 2 91
2019-10-14 22:00:00 8 18 Sudoeste 28 Sudoeste 0 901.7 1.6 84
2019-10-14 21:00:00 7.8 15 Sudoeste 32 Oeste 0.2 901.7 1.1 85
2019-10-14 20:00:00 8.7 17 Sudoeste 28 Sudoeste 0 900.8 1.7 83
2019-10-14 19:00:00 8.2 17 Sur 36 Oeste 2.2 900.1 2.7 81
2019-10-14 18:00:00 8.2 24 Sudoeste 55 Oeste 4 900.6 3.2 87
2019-10-14 17:00:00 10.8 35 Oeste 60 Oeste 0 899.1 1.2 72
2019-10-14 16:00:00 15.8 23 Oeste 36 Oeste 0 897.4 -1.1 47
2019-10-14 15:00:00 17.2 20 Oeste 48 Sudoeste 0 897.4 -1.4 50
2019-10-14 14:00:00 17.8 23 Sudoeste 50 Sudoeste 0 897.9 -0.1 40
2019-10-14 13:00:00 14.7 21 Oeste 36 Sudoeste 0 898.5 1.2 63
2019-10-14 12:00:00 12.1 18 Noroeste 54 Sudoeste 0 898.8 1.9 76
2019-10-14 11:00:00 16.1 32 Sudoeste 57 Sur 0 898 1.5 57
2019-10-14 10:00:00 15.7 30 Sudoeste 56 Sudoeste 0 897.3 1.7 60
2019-10-14 09:00:00 16.6 28 Sudoeste 53 Sudoeste 0 896.9 0.9 54
2019-10-14 08:00:00 16.6 25 Sur 58 Sur 0 896.5 0.4 54
2019-10-14 07:00:00 17.7 33 Sur 55 Sur 0 895.6 -0.7 51
2019-10-14 06:00:00 18.7 25 Sur 49 Sur 0 896 -1.2 47
2019-10-14 05:00:00 18.9 29 Sur -- -- -- 896.1 -2.3 43
2019-10-14 04:00:00 19.9 33 Sur 60 Sur 0 896.3 -2.8 41
2019-10-14 03:00:00 19.8 24 Sudeste 39 Sur 0 897.2 -2.7 41
2019-10-14 02:00:00 19.5 18 Sur 39 Sur 0 898.4 -1.8 43
2019-10-14 01:00:00 19.1 24 Sudeste 35 Sudeste 0 899.1 -1.3 43
2019-10-14 00:00:00 19 16 Sudeste 44 Sur 0 899.9 -0.7 43
2019-10-13 23:00:00 19.8 27 Sur 41 Sur 0 900.2 -0.3 41
2019-10-13 22:00:00 19.3 25 Sur 48 Sur 0 900.4 -0.3 43
2019-10-13 21:00:00 18.8 28 Sur 43 Sur 0 900.6 0.1 42
2019-10-13 20:00:00 19 16 Sur 39 Sur 0 900.5 -0.3 34
2019-10-13 19:00:00 20.3 23 Sur 44 Sur 0 900.7 -0.2 33
2019-10-13 18:00:00 21 28 Sur 48 Sur 0 900.5 -0.6 37
2019-10-13 17:00:00 22 30 Sur 47 Sur 0 900.8 -0.8 32
2019-10-13 16:00:00 22.4 31 Sur 52 Sudoeste 0 900.9 -0.9 29
2019-10-13 15:00:00 23.1 26 Sudoeste 41 Sudoeste 0 901.1 -0.9 28
2019-10-13 14:00:00 22.6 23 Sur 41 Sudoeste 0 901.6 -0.5 29
2019-10-13 13:00:00 21.8 25 Sur 42 Sur 0 901.8 0 30
2019-10-13 12:00:00 20.9 19 Sur 34 Sudoeste 0 902 0.5 34
2019-10-13 11:00:00 19.7 19 Sur 30 Sur 0 902.1 1.2 42
2019-10-13 10:00:00 17.6 16 Sur 26 Sudeste 0 901.8 1.3 50
2019-10-13 09:00:00 15.9 18 Sur 27 Sur 0 901.5 1.7 59
2019-10-13 08:00:00 16.7 19 Sur 36 Sur 0 900.9 0.3 56
2019-10-13 07:00:00 17.2 15 Sudoeste 44 Sur 0 900.5 -0.2 58
2019-10-13 06:00:00 17.9 23 Sudeste 44 Sur 0 899.8 -1.5 57
2019-10-13 05:00:00 17.6 22 Sur 47 Sudeste 0 900.6 -1.2 60
2019-10-13 04:00:00 17.2 31 Sudeste 45 Sudeste 0 900.7 -1.4 58
2019-10-13 03:00:00 17.4 21 Sudeste 37 Sur 0 901.3 -1 51
2019-10-13 02:00:00 17.5 19 Sudeste 33 Sur 0 901.8 -0.2 48
2019-10-13 01:00:00 18.4 28 Sudeste 53 Sudeste 0 902.1 0.2 45
2019-10-13 00:00:00 18.6 37 Sudeste 55 Sudeste 0 902.3 0.7 44
2019-10-12 23:00:00 18.1 36 Sudeste 52 Sudeste 0 902 0.1 48
2019-10-12 22:00:00 19 25 Sudeste 43 Sudeste 0 901.9 0.2 49
2019-10-12 21:00:00 18 20 Sudeste 36 Sudeste 0 901.6 0.1 54
2019-10-12 20:00:00 17.7 21 Sudeste 45 Sur 0 901.9 0.2 60
2019-10-12 19:00:00 22.6 22 Sudeste 43 Sudeste 0 901.7 -0.3 38
2019-10-12 18:00:00 24.4 23 Sur 47 Sur 0 901.5 -1.1 33
2019-10-12 17:00:00 25 30 Sur 44 Sur 0 901.7 -1.5 32
2019-10-12 16:00:00 23.7 16 Sur 31 Sur 0 902 -1.1 33
2019-10-12 15:00:00 23.7 24 Sur 39 Sudoeste 0 902.6 -- 34
2019-10-12 14:00:00 24 21 Sudoeste 42 Sur 0 903.2 -0.1 31
2019-10-12 13:00:00 25.2 27 Sur 46 Sur 0 903.1 -0.2 29
2019-10-12 12:00:00 24.4 31 Sur 49 Sur 0 -- -- 29
2019-10-12 11:00:00 21.7 29 Sur 41 Sur 0 903.3 0.5 37
2019-10-12 10:00:00 20.2 9 Sudeste 26 Sur 0 903.3 0.7 45
2019-10-12 09:00:00 20.2 17 Sur 24 Sur 0 903.1 0.6 43
2019-10-12 08:00:00 20.5 18 Sur 28 Sur 0 902.8 0.1 42
2019-10-12 07:00:00 21.3 16 Sur 26 Sur 0 902.6 -0.5 35
2019-10-12 06:00:00 21.3 17 Sur 30 Sur 0 902.5 -0.9 34
2019-10-12 05:00:00 21.2 23 Sur 35 Sur 0 902.7 -1.4 38
2019-10-12 04:00:00 21.6 23 Sur 37 Sur 0 903.1 -1 37
2019-10-12 03:00:00 21.3 21 Sur 33 Sudeste 0 903.4 -1.1 44
2019-10-12 02:00:00 21.5 17 Sudoeste 25 Sudoeste 0 904.1 0 50
2019-10-12 01:00:00 21.5 8 Sur 25 Sur 0 904.1 0.1 49
2019-10-12 00:00:00 22.5 18 Sur 37 Sur 0 904.5 0.7 42
2019-10-11 23:00:00 22.4 22 Sur 41 Sur 0 904.1 0.1 41
2019-10-11 22:00:00 21 6 Sur 26 Sur 0 904 -0.1 51
2019-10-11 21:00:00 21 14 Sur 26 Sur 0 903.8 -0.3 52
2019-10-11 20:00:00 21.8 13 Sur 26 Sur 0 904 -0.1 50
2019-10-11 19:00:00 23.4 18 Sur 30 Sur 0 904.1 -0.2 46
2019-10-11 18:00:00 24.8 23 Sur 35 Sudoeste 0 904.1 -0.8 42
2019-10-11 17:00:00 25.8 26 Sur 41 Sur 0 904.1 -1.5 38
2019-10-11 16:00:00 26.2 21 Sur 35 Sur 0 904.3 -1.9 35
2019-10-11 15:00:00 27 25 Sur 39 Sur 0 904.9 -1.7 34
2019-10-11 14:00:00 27 14 Sudoeste 33 Sudoeste 0 905.6 -1.2 34
2019-10-11 13:00:00 26.3 19 Sudoeste 27 Sudoeste 0 906.2 -0.2 35
2019-10-11 12:00:00 25 7 Sudoeste 14 Sudoeste 0 906.6 0.8 41
2019-10-11 11:00:00 22.1 3 Oeste 5 Oeste 0 906.8 1.1 50
2019-10-11 10:00:00 19.1 3 Nordeste 7 Nordeste 0 906.4 0.9 60
2019-10-11 09:00:00 16.6 5 Este 10 Este 0 905.8 0.4 68
2019-10-11 08:00:00 15.8 6 Este 9 Este 0 905.7 0.2 68
2019-10-11 07:00:00 15.9 6 Este 7 Nordeste 0 905.5 -0.1 65
2019-10-11 06:00:00 16.2 5 Este 8 Este 0 905.4 -0.6 62
2019-10-11 05:00:00 16.1 6 Este 9 Este 0 905.5 -0.7 62
2019-10-11 04:00:00 15.8 6 Este 8 Este 0 905.6 -0.8 62
2019-10-11 03:00:00 15.3 5 Este 8 Nordeste 0 906 -0.4 58
2019-10-11 02:00:00 15.3 5 Este 10 Este 0 906.2 -0.2 55
2019-10-11 01:00:00 15.1 6 Este 8 Este 0 906.4 0.2 55
2019-10-11 00:00:00 15.7 5 Este 9 Sudeste 0 906.4 0.6 55
2019-10-10 23:00:00 16 5 Sudeste 15 Este 0 906.4 0.9 54
2019-10-10 22:00:00 18.1 7 Este 13 Este 0 906.2 1 53
2019-10-10 21:00:00 20 6 Este 9 Este 0 905.8 0.8 44
2019-10-10 20:00:00 22 5 Oeste 15 Sudoeste 0 905.5 0.4 37
2019-10-10 19:00:00 24.6 2 Sudeste 9 Noroeste 0 905.2 -0.2 32
2019-10-10 18:00:00 24.7 6 Norte 15 Noroeste 0 905 -0.7 31
2019-10-10 17:00:00 24.8 8 Noroeste 16 Noroeste 0 905.1 -1.4 31
2019-10-10 16:00:00 24.3 6 Norte 13 Noroeste 0 905.4 -1.4 32
2019-10-10 15:00:00 23.2 5 Norte 13 Oeste 0 905.7 -1.4 34
2019-10-10 14:00:00 22.3 6 Oeste 14 Oeste 0 906.5 -1 37
2019-10-10 13:00:00 20.7 7 Oeste 13 Oeste 0 906.8 -0.3 41
2019-10-10 12:00:00 18.2 8 Sudoeste 11 Sudoeste 0 907.1 0.7 48
2019-10-10 11:00:00 15.4 6 Oeste 9 Oeste 0 907.5 1.5 56
2019-10-10 10:00:00 12.9 6 Nordeste 9 Este 0 907.1 1 63
2019-10-10 09:00:00 8.9 6 Oeste 8 Oeste 0 906.4 0.6 75
2019-10-10 08:00:00 9.6 4 Este 9 Sudeste 0 906 0.3 74
2019-10-10 07:00:00 9.7 8 Sudeste 11 Sudeste 0 906.1 0.2 71
2019-10-10 06:00:00 10.2 3 Este 8 Sudeste 0 905.8 -0.5 72
2019-10-10 05:00:00 10.4 4 Sudeste 6 Este 0 905.7 -0.7 69
2019-10-10 04:00:00 10.3 4 Este 11 Sudeste 0 905.9 -0.9 69
2019-10-10 03:00:00 11.1 6 Este 11 Este 0 906.3 -0.1 67
2019-10-10 02:00:00 11.7 6 Este 11 Sudeste 0 906.4 0.2 63
2019-10-10 01:00:00 11.8 5 Sudeste 12 Sur 0 906.8 1 62
2019-10-10 00:00:00 13.3 2 Norte 10 Este 0 906.4 0.9 58
2019-10-09 23:00:00 14.3 7 Este 15 Este 0 906.2 1.3 56
2019-10-09 22:00:00 15.5 9 Nordeste 21 Nordeste 0 905.8 1.2 52
2019-10-09 21:00:00 17.8 8 Nordeste 17 Nordeste 0 905.5 1.2 44
2019-10-09 20:00:00 20.1 6 Noroeste 12 Noroeste 0 904.9 0.2 36
2019-10-09 19:00:00 21.7 6 Noroeste 13 Norte 0 904.6 -0.4 33
2019-10-09 18:00:00 22.3 5 Norte 14 Nordeste 0 904.3 -0.9 32
2019-10-09 17:00:00 22.3 6 Noroeste 17 Noroeste 0 904.7 -0.9 33
2019-10-09 16:00:00 22.4 9 Noroeste 18 Noroeste 0 905 -1.1 37
2019-10-09 15:00:00 22.3 6 Noroeste 12 Norte 0 905.2 -1.2 40
2019-10-09 14:00:00 20.6 7 Noroeste 16 Noroeste 0 905.6 -1 49
2019-10-09 13:00:00 19 6 Noroeste 12 Noroeste 0 906.1 -0.2 59
2019-10-09 12:00:00 17 5 Norte 15 Noroeste 0 906.4 0.9 69
2019-10-09 11:00:00 15.9 3 Noroeste 13 Noroeste 0 906.6 0.8 76
2019-10-09 10:00:00 14.6 9 Oeste 16 Oeste 0 906.3 0.6 83
2019-10-09 09:00:00 14.7 6 Oeste 8 Oeste 0 905.5 0.8 84
2019-10-09 08:00:00 14.6 5 Sur 10 Sudoeste 0 905.8 1.3 84
2019-10-09 07:00:00 14.1 9 Sudoeste 14 Oeste 0 905.7 0.8 82
2019-10-09 06:00:00 14.8 10 Sudoeste 16 Sur 0 904.7 -0.6 78
2019-10-09 05:00:00 15.3 10 Sur 18 Sudoeste 0 904.5 -0.4 73
2019-10-09 04:00:00 15.5 10 Sur 12 Sur 0 904.9 -0.5 64
2019-10-09 03:00:00 16.1 4 Este 16 Sur 0 905.3 -0.2 62
2019-10-09 02:00:00 16.8 13 Sudeste 16 Sur 0 904.9 -0.4 59
2019-10-09 01:00:00 17.7 5 Sudeste 14 Sudeste 0 905.4 0.5 54
2019-10-09 00:00:00 18.4 12 Sur 15 Sur 0 905.5 0.8 50
2019-10-08 23:00:00 18.4 5 Sudeste 9 Sudeste 0 905.3 1.1 46
2019-10-08 22:00:00 20 4 Este 9 Sudeste 0 904.9 1.1 41
2019-10-08 21:00:00 22.1 4 Sur 11 Oeste 0 904.7 0.8 34
2019-10-08 20:00:00 24.1 6 Oeste 19 Noroeste 0 904.2 0.1 32
2019-10-08 19:00:00 26.6 12 Oeste 27 Oeste 0 903.8 -0.5 28
2019-10-08 18:00:00 27.5 15 Oeste 29 Oeste 0 903.9 -0.7 27
2019-10-08 17:00:00 27.9 15 Oeste 27 Oeste 0 904.1 -1.1 27
2019-10-08 16:00:00 27.9 12 Oeste 27 Oeste 0 904.3 -1.6 28
2019-10-08 15:00:00 27.9 10 Oeste 24 Oeste 0 904.6 -1.9 28
2019-10-08 14:00:00 27.4 9 Oeste 20 Sudoeste 0 905.2 -1.2 30
2019-10-08 13:00:00 25.2 6 Noroeste 16 Oeste 0 905.9 -0.3 34
2019-10-08 12:00:00 23.8 5 Oeste 11 Oeste 0 906.5 0.4 33
2019-10-08 11:00:00 22.4 3 Oeste 8 Este 0 906.4 0.3 35
2019-10-08 10:00:00 18 5 Este 9 Este 0 906.2 0.3 48
2019-10-08 09:00:00 14.7 5 Este 12 Nordeste 0 906.1 0.2 54
2019-10-08 08:00:00 13.9 8 Este 9 Este 0 906.1 0 57
2019-10-08 07:00:00 13.6 6 Este 11 Este 0 905.9 -0.4 58
2019-10-08 06:00:00 13.9 5 Este 10 Este 0 905.9 -0.9 56
2019-10-08 05:00:00 13.9 7 Este 13 Sudeste 0 906.1 -0.9 55
2019-10-08 04:00:00 14.6 5 Este 11 Este 0 906.3 -0.9 52
2019-10-08 03:00:00 14.5 8 Este 10 Nordeste 0 906.8 -0.8 51
2019-10-08 02:00:00 14.9 4 Este 10 Este 0 907 -0.5 48
2019-10-08 01:00:00 14.9 6 Este 10 Este 0 907.2 0.1 48
2019-10-08 00:00:00 15.9 6 Este 14 Sudeste 0 907.6 0.8 45
2019-10-07 23:00:00 16.1 8 Sudeste 16 Este 0 907.5 0.9 44
2019-10-07 22:00:00 18 9 Este 16 Este 0 907.1 0.7 41
2019-10-07 21:00:00 20.2 7 Este 14 Este 0 906.8 0.3 34
2019-10-07 20:00:00 22.2 5 Nordeste 12 Nordeste 0 906.6 -0.1 31
2019-10-07 19:00:00 23.8 6 Norte 13 Norte 0 906.4 -0.3 28
2019-10-07 18:00:00 24.7 6 Nordeste 14 Noroeste 0 906.5 -0.5 26
2019-10-07 17:00:00 25 6 Noroeste 15 Oeste 0 906.7 -0.8 28
2019-10-07 16:00:00 24.5 9 Noroeste 19 Noroeste 0 906.7 -1 28
2019-10-07 15:00:00 24.2 7 Noroeste 15 Norte 0 907 -1 27
2019-10-07 14:00:00 23 9 Noroeste 16 Noroeste 0 907.5 -0.6 25
2019-10-07 13:00:00 21.8 5 Oeste 15 Noroeste 0 907.7 -0.1 32
2019-10-07 12:00:00 18.3 5 Oeste 12 Oeste 0 908 0.4 44
2019-10-07 11:00:00 17.1 7 Sudoeste 11 Oeste 0 908.1 0.8 47
2019-10-07 10:00:00 15 2 Sudeste 5 Este 0 907.8 1 52
2019-10-07 09:00:00 12 3 Este 12 Sudeste 0 907.6 1.2 62
2019-10-07 08:00:00 10.8 3 Sudeste 12 Sur 0 907.3 0.2 63
2019-10-07 07:00:00 11.6 3 Oeste 9 Sur 0 906.8 -0.4 61
2019-10-07 06:00:00 12.8 5 Nordeste 10 Sudeste 0 906.4 -1.3 58
2019-10-07 05:00:00 13.3 7 Sur 15 Sur 0 907.1 -0.4 54
2019-10-07 04:00:00 13.3 11 Sur 16 Sur 0 907.2 -0.3 54
2019-10-07 03:00:00 13 3 Este 6 Sudeste 0 907.7 0 56
2019-10-07 02:00:00 13.4 4 Sudoeste 10 Sudeste 0 907.5 -0.4 54
2019-10-07 01:00:00 13.9 8 Sudeste 18 Este 0 907.5 0 52
2019-10-07 00:00:00 14.6 7 Nordeste 10 Nordeste 0 907.7 0.6 50
2019-10-06 23:00:00 15.7 6 Este 9 Nordeste 0 907.9 1.2 46
2019-10-06 22:00:00 17.3 5 Nordeste 14 Noroeste 0 907.5 1 42
2019-10-06 21:00:00 18.5 5 Norte 19 Noroeste 0 907.1 1 39
2019-10-06 20:00:00 20.2 14 Noroeste 24 Noroeste 0 906.7 0.3 36
2019-10-06 19:00:00 22.6 13 Oeste 21 Noroeste 0 906.5 -0.2 31
2019-10-06 18:00:00 23.4 8 Oeste 18 Oeste 0 906.1 -1.2 27
2019-10-06 17:00:00 23.4 9 Oeste 18 Noroeste 0 906.4 -1.3 27
2019-10-06 16:00:00 22.9 6 Oeste 16 Oeste 0 906.7 -1.3 29
2019-10-06 15:00:00 22.1 6 Noroeste 17 Noroeste 0 907.3 -0.7 34
2019-10-06 14:00:00 21.1 12 Oeste 26 Oeste 0 907.7 0 36
2019-10-06 13:00:00 19.6 6 Sudoeste 15 Oeste 0 908 0.6 45
2019-10-06 12:00:00 18.3 11 Oeste 17 Oeste 0 908 0.9 51
2019-10-06 11:00:00 16.7 9 Oeste 14 Oeste 0 907.7 1.1 54
2019-10-06 10:00:00 14.1 3 Este 10 Este 0 907.4 1.6 61
2019-10-06 09:00:00 10.9 4 Este 10 Este 0 907.1 0.7 68
2019-10-06 08:00:00 10 5 Este 8 Este 0 906.6 0.8 75
2019-10-06 07:00:00 10.6 6 Sudeste 16 Sudeste 0 905.8 -0.3 74
2019-10-06 06:00:00 10.8 4 Este 11 Sudeste 0 906.4 0.4 69
2019-10-06 05:00:00 11.1 10 Sudeste 14 Sudeste 0 905.8 -0.3 66
2019-10-06 04:00:00 11.7 5 Este 8 Este 0 906.1 -0.4 63
2019-10-06 03:00:00 12.6 4 Este 13 Sudeste 0 906 0.1 59
2019-10-06 02:00:00 13.6 11 Sudeste 14 Sudoeste 0 906.1 0.7 54
2019-10-06 01:00:00 15.1 10 Sudoeste 15 Sudoeste 0 906.5 1.3 51
2019-10-06 00:00:00 14.5 5 Sur 10 Sur 0 905.9 1.1 52
2019-10-05 23:00:00 15.6 7 Sudeste 12 Sudeste 0 905.4 1.1 49
2019-10-05 22:00:00 17 5 Este 10 Noroeste 0 905.2 1.4 45
2019-10-05 21:00:00 19.5 6 Noroeste 10 Oeste 0 904.8 1.5 42
2019-10-05 20:00:00 21.3 7 Oeste 21 Oeste 0 904.3 1 35
2019-10-05 19:00:00 23.8 12 Oeste 23 Oeste 0 903.8 0.4 30
2019-10-05 18:00:00 24.9 12 Oeste 22 Oeste 0 903.3 -0.6 25
2019-10-05 17:00:00 25 12 Oeste 24 Noroeste 0 903.3 -0.9 26
2019-10-05 16:00:00 24.3 11 Oeste 23 Oeste 0 903.4 -1 31
2019-10-05 15:00:00 23.8 9 Oeste 18 Noroeste 0 903.9 -0.7 34
2019-10-05 14:00:00 23.1 4 Oeste 13 Noroeste 0 904.2 -0.4 39
2019-10-05 13:00:00 21.3 4 Nordeste 12 Noroeste 0 904.4 0.1 47
2019-10-05 12:00:00 19.3 5 Sudoeste 12 Oeste 0 904.6 0.5 55
2019-10-05 11:00:00 17.2 5 Sudoeste 9 Sudoeste 0 904.6 1 61
2019-10-05 10:00:00 15 3 Este 5 Este 0 904.3 0.8 67
2019-10-05 09:00:00 11.5 4 Este 7 Nordeste 0 904.1 0.6 78
2019-10-05 08:00:00 11.3 5 Este 10 Sudeste 0 903.6 0 81
2019-10-05 07:00:00 11.5 4 Sudeste 6 Sudeste 0 903.5 -0.3 80
2019-10-05 06:00:00 11.9 3 Este 7 Sur 0 903.5 -0.6 78
2019-10-05 05:00:00 12.2 4 Sudeste 12 Sur 0 903.6 -0.6 77
2019-10-05 04:00:00 12.3 5 Este 7 Sur 0 903.8 -0.6 80
2019-10-05 03:00:00 12.8 5 Este 9 Sudeste 0 904.1 -0.3 79
2019-10-05 02:00:00 13.1 5 Sudoeste 8 Sur 0 904.2 -0.2 78
2019-10-05 01:00:00 14.7 6 Este 11 Este 0 904.4 0.1 75
2019-10-05 00:00:00 14.9 5 Este 9 Este 0 904.4 0.4 74
2019-10-04 23:00:00 16 7 Nordeste 12 Sudeste 0 904.4 0.8 70
2019-10-04 22:00:00 16.7 6 Este 12 Sudeste 0 904.3 0.9 68
2019-10-04 21:00:00 18.2 4 Oeste 9 Oeste 0 904 0.5 63
2019-10-04 20:00:00 19.8 6 Oeste 13 Oeste 0 903.6 -0.2 58
2019-10-04 19:00:00 21.5 6 Oeste 17 Oeste 0 903.4 -1 53
2019-10-04 18:00:00 22 10 Oeste 21 Oeste 0 903.5 -1.4 51
2019-10-04 17:00:00 22 10 Oeste 25 Oeste 0 903.8 -1.3 50
2019-10-04 16:00:00 22.4 13 Oeste 27 Oeste 0 904.4 -1 48
2019-10-04 15:00:00 21.9 13 Noroeste 28 Oeste 0 904.9 -0.7 48
2019-10-04 14:00:00 21 10 Noroeste 18 Oeste 0 905.1 -0.6 55
2019-10-04 13:00:00 19.8 10 Oeste 18 Oeste 0 905.4 -0.3 57
2019-10-04 12:00:00 18 8 Oeste -- -- -- 905.6 0.2 61
2019-10-04 11:00:00 17.1 4 Oeste 8 Oeste 0 905.7 0.8 64
2019-10-04 10:00:00 15.1 3 Este 6 Este 0 905.7 0.9 53
2019-10-04 09:00:00 11.2 3 Oeste 7 Este 0 905.4 0.3 64
2019-10-04 08:00:00 11.1 6 Este 9 Este 0 904.9 -0.7 67
2019-10-04 07:00:00 11.4 6 Nordeste 9 Este 0 904.8 -1.3 68
2019-10-04 06:00:00 11.6 6 Este 10 Este 0 905.1 -1.4 67
2019-10-04 05:00:00 12 5 Este 13 Sudeste 0 905.6 -1 61
2019-10-04 04:00:00 12.5 4 Este 12 Sudeste 0 906.1 -0.6 57
2019-10-04 03:00:00 13.3 10 Sudeste 14 Sudeste 0 906.5 -0.1 51
2019-10-04 02:00:00 14.4 7 Sudeste 16 Sur 0 906.6 0.3 46
2019-10-04 01:00:00 13.5 6 Sudeste 12 Sudeste 0 906.7 0.7 48
2019-10-04 00:00:00 14.6 6 Este 9 Este 0 906.6 0.8 45
2019-10-03 23:00:00 14.6 6 Este 9 Este 0 906.3 0.7 45
2019-10-03 22:00:00 15.5 5 Este 10 Este 0 906 0.6 43
2019-10-03 21:00:00 18.1 6 Este 10 Este 0 905.8 0.2 35
2019-10-03 20:00:00 20.5 5 Oeste 14 Oeste 0 905.6 -0.2 30
2019-10-03 19:00:00 22.2 7 Oeste 17 Oeste 0 905.4 -0.7 28
2019-10-03 18:00:00 22.8 10 Oeste 21 Oeste 0 905.6 -0.6 28
2019-10-03 17:00:00 22.6 12 Oeste 21 Oeste 0 905.8 -0.6 28
2019-10-03 16:00:00 22.4 8 Sudoeste 21 Oeste 0 906.1 -0.5 30
2019-10-03 15:00:00 21.4 14 Sudoeste 21 Oeste 0 906.2 -1 33
2019-10-03 14:00:00 20.1 9 Oeste 18 Oeste 0 906.4 -0.6 34
2019-10-03 13:00:00 19.4 4 Sudoeste 12 Nordeste 0 906.6 -0.4 37
2019-10-03 12:00:00 17.3 4 Oeste 11 Oeste 0 907.2 0.7 42
2019-10-03 11:00:00 16 3 Sur 6 Sudoeste 0 907 1.1 47
2019-10-03 10:00:00 12.6 3 Este 8 Este 0 907 1.2 56
2019-10-03 09:00:00 9.4 4 Este 6 Nordeste 0 906.5 0.9 67
2019-10-03 08:00:00 8.8 4 Este 7 Este 0 905.9 0.4 65
2019-10-03 07:00:00 9.3 5 Este 8 Nordeste 0 905.8 0.1 64
2019-10-03 06:00:00 9.9 7 Sudeste 15 Sudeste 0 905.6 -0.7 62
2019-10-03 05:00:00 10.3 6 Este 10 Este 0 905.5 -0.7 61
2019-10-03 04:00:00 10.2 6 Sudeste 15 Sudeste 0 905.7 -1 61
2019-10-03 03:00:00 9.7 10 Sudeste 17 Sudeste 0 906.3 -0.6 63
2019-10-03 02:00:00 10.5 3 Sudeste 13 Este 0 906.2 -0.6 61
2019-10-03 01:00:00 10.6 5 Este 12 Este 0 906.7 0 62
2019-10-03 00:00:00 12 5 Este 12 Nordeste 0 906.9 0.6 58
2019-10-02 23:00:00 12.5 7 Nordeste 15 Este 0 906.8 0.8 56
2019-10-02 22:00:00 13.5 8 Este 14 Este 0 906.7 0.8 53
2019-10-02 21:00:00 15.5 5 Norte 9 Nordeste 0 906.3 0.9 46
2019-10-02 20:00:00 16.9 4 Oeste 13 Oeste 0 906 0.4 43
2019-10-02 19:00:00 18.5 3 Norte 15 Oeste 0 905.9 0 38
2019-10-02 18:00:00 18.5 6 Norte 14 Noroeste 0 905.4 -0.4 39
2019-10-02 17:00:00 18.5 6 Noroeste 21 Noroeste 0 905.6 -0.7 39
2019-10-02 16:00:00 17.6 9 Nordeste 19 Nordeste 0 905.9 -0.3 42
2019-10-02 15:00:00 16.5 6 Noroeste 19 Norte 0 905.8 -0.7 43
2019-10-02 14:00:00 15.6 5 Noroeste 13 Oeste 0 906.3 0 52
2019-10-02 13:00:00 14.5 6 Noroeste 13 Noroeste 0 906.2 0.5 60
2019-10-02 12:00:00 11.9 4 Nordeste 10 Este 0 906.5 1.3 71
2019-10-02 11:00:00 10.2 2 Este 14 Oeste 0 906.3 1.2 84
2019-10-02 10:00:00 9 7 Oeste 15 Oeste 0 905.7 0.9 90
2019-10-02 09:00:00 8.8 5 Oeste 13 Oeste 0 905.2 0.6 92
2019-10-02 08:00:00 9.1 9 Oeste 16 Oeste 0 905.1 0.5 90
2019-10-02 07:00:00 9.5 6 Sudoeste 11 Oeste 0 904.8 0.2 89
2019-10-02 06:00:00 9.9 8 Sudoeste 12 Sudoeste 0 904.6 -0.3 87
2019-10-02 05:00:00 9.9 9 Sudoeste 16 Sudoeste 0 904.6 0 84
2019-10-02 04:00:00 10.8 10 Sudoeste 16 Sudoeste 0 904.6 -0.2 79
2019-10-02 03:00:00 11.2 9 Sudoeste 13 Sudoeste 0 904.9 0.3 74
2019-10-02 02:00:00 11.9 5 Sudoeste 12 Sudoeste 0 904.6 0.4 71
2019-10-02 01:00:00 12.4 6 Sudoeste 12 Sudoeste 0 904.8 1.4 66
2019-10-02 00:00:00 13.3 6 Sudoeste 12 Sudoeste 0 904.6 1.7 63
2019-10-01 23:00:00 14.1 11 Sudoeste 20 Oeste 0 904.2 1.6 61
2019-10-01 22:00:00 15.3 10 Sudoeste 17 Sudoeste 0 903.4 0.5 57
2019-10-01 21:00:00 16 10 Sudoeste 19 Oeste 0 902.9 0.5 54
2019-10-01 20:00:00 18.3 14 Oeste 24 Oeste 0 902.6 0.3 49
2019-10-01 19:00:00 19.8 17 Oeste 32 Sudoeste 0 902.9 0.4 46
2019-10-01 18:00:00 20.1 18 Oeste 37 Oeste 0 902.4 -0.5 50
2019-10-01 17:00:00 19.9 18 Oeste 33 Oeste 0 902.3 -1.2 51
2019-10-01 16:00:00 20.3 19 Oeste 37 Oeste 0 902.5 -1.2 51
2019-10-01 15:00:00 20.4 15 Oeste 32 Noroeste 0 902.9 -1.4 49
2019-10-01 14:00:00 18.1 9 Sur 19 Sur 0 903.5 -0.4 66
2019-10-01 13:00:00 16.3 10 Sur 18 Sudoeste 0 903.7 0.7 75
2019-10-01 12:00:00 13.7 12 Oeste 17 Oeste 0.2 904.3 2.2 91
2019-10-01 11:00:00 13.8 8 Oeste 15 Oeste 0 903.9 1.6 92
2019-10-01 10:00:00 14.5 6 Oeste 14 Oeste 0 903 1.4 76
2019-10-01 09:00:00 14.7 4 Sur 14 Sudeste 0 902.1 0.8 65
2019-10-01 08:00:00 13.4 4 Sur 12 Oeste 0 902.3 0.9 63
2019-10-01 07:00:00 13.7 4 Este 6 Este 0 901.6 -0.6 49
2019-10-01 06:00:00 14.1 6 Este 8 Sudeste 0 901.3 -1.6 45
2019-10-01 05:00:00 14.5 8 Sudeste 14 Sudeste 0 901.4 -1.5 42
2019-10-01 04:00:00 15 8 Sudeste 13 Sudeste 0 902.2 -1 38
2019-10-01 03:00:00 15.7 4 Este 10 Este 0 902.9 -0.5 37
2019-10-01 02:00:00 15.8 6 Este 9 Este 0 902.9 -0.5 36
2019-10-01 01:00:00 16.7 7 Este 14 Sudeste 0 903.2 0 36
2019-10-01 00:00:00 17.3 5 Este 11 Sudeste 0 903.4 0.5 35
2019-09-30 23:00:00 18.3 4 Este 10 Sudeste 0 903.4 0.8 35
2019-09-30 22:00:00 19.4 5 Este 11 Sudeste 0 903.2 0.6 33
2019-09-30 21:00:00 21.6 9 Sur 12 Sur 0 902.9 0.3 31
2019-09-30 20:00:00 24.5 4 Oeste 18 Oeste 0 902.6 -0.4 28
2019-09-30 19:00:00 26.6 9 Oeste 19 Oeste 0 902.6 -0.9 24
2019-09-30 18:00:00 27.4 10 Noroeste 21 Oeste 0 902.6 -1.4 21
2019-09-30 17:00:00 27.5 12 Noroeste 28 Oeste 0 903 -1.9 19
2019-09-30 16:00:00 27.6 15 Oeste 27 Sudoeste 0 903.5 -1.8 20
2019-09-30 15:00:00 26.9 8 Oeste 22 Oeste 0 904 -1.8 21
2019-09-30 14:00:00 25.7 8 Oeste 17 Oeste 0 904.9 -0.7 24
2019-09-30 13:00:00 24.3 4 Sudoeste 14 Oeste 0 905.3 -0.4 30
2019-09-30 12:00:00 21.5 5 Noroeste 10 Noroeste 0 905.8 0.2 42
2019-09-30 11:00:00 19.7 3 Oeste 6 Este 0 905.6 0.2 44
2019-09-30 10:00:00 16.3 3 Nordeste 10 Este 0 905.7 0.4 49
2019-09-30 09:00:00 12.2 6 Este 9 Nordeste 0 905.6 0.2 59
2019-09-30 08:00:00 11.7 5 Este 8 Este 0 905.4 -0.3 60
2019-09-30 07:00:00 12.2 4 Este 8 Este 0 905.3 -0.9 57
2019-09-30 06:00:00 12.6 6 Este 9 Este 0 905.4 -1.1 55
2019-09-30 05:00:00 13 5 Este 7 Este 0 905.7 -0.9 52
2019-09-30 04:00:00 13.5 5 Este 8 Este 0 906.2 -0.5 48
2019-09-30 03:00:00 14.4 6 Este 10 Este 0 906.5 -0.1 42
2019-09-30 02:00:00 14.9 7 Nordeste 8 Este 0 906.6 0.1 38
2019-09-30 01:00:00 15.2 6 Este 9 Este 0 906.7 0.4 38
2019-09-30 00:00:00 16 7 Nordeste 9 Nordeste 0 906.6 1 37
2019-09-29 23:00:00 16.9 5 Este 8 Este 0 906.5 1.3 35
2019-09-29 22:00:00 18.3 6 Este 10 Sur 0 906.3 1.2 33
2019-09-29 21:00:00 21 5 Sudoeste 10 Oeste 0 905.6 0.4 23
2019-09-29 20:00:00 23.4 9 Oeste 18 Oeste 0 905.2 -0.3 22
2019-09-29 19:00:00 25.5 11 Oeste 23 Oeste 0 905.1 -0.7 21
2019-09-29 18:00:00 26.4 11 Oeste 23 Sudoeste 0 905.2 -1 18
2019-09-29 17:00:00 26.4 12 Oeste 29 Oeste 0 905.5 -1.1 20
2019-09-29 16:00:00 25.9 13 Oeste 25 Oeste 0 905.8 -0.7 24
2019-09-29 15:00:00 25.6 14 Oeste 32 Oeste 0 906.2 -0.4 23
2019-09-29 14:00:00 25.6 14 Oeste 32 Oeste 0 906.6 0.4 21
2019-09-29 13:00:00 24.8 15 Oeste 25 Oeste 0 906.5 0.6 25
2019-09-29 12:00:00 24.7 10 Sudoeste 21 Sudoeste 0 906.6 0.9 25
2019-09-29 11:00:00 22.5 9 Sur 12 Sur 0 906.2 0.6 28
2019-09-29 10:00:00 17.7 5 Nordeste 7 Este 0 905.9 0.5 39
2019-09-29 09:00:00 14 6 Este 8 Este 0 905.7 0 48
2019-09-29 08:00:00 12.7 6 Este 10 Este 0 905.6 0.1 52
2019-09-29 07:00:00 12.9 5 Este 10 Este 0 905.4 -0.5 50
2019-09-29 06:00:00 14 5 Este 12 Este 0 905.7 -0.5 46
2019-09-29 05:00:00 13.9 7 Este 11 Este 0 905.5 -0.6 45
2019-09-29 04:00:00 13.7 6 Este 9 Este 0 905.9 -0.3 44
2019-09-29 03:00:00 14.6 4 Este 6 Este 0 906.2 -0.2 43
2019-09-29 02:00:00 15.5 2 Sudeste 11 Sudeste 0 906.1 -0.4 39
2019-09-29 01:00:00 16.1 5 Este 10 Este 0 906.2 -0.2 38
2019-09-29 00:00:00 16.5 6 Este 10 Este 0 906.4 0.2 37
2019-09-28 23:00:00 16.8 5 Este 10 Este 0 906.5 0.9 38
2019-09-28 22:00:00 18.6 6 Este 11 Sudeste 0 906.4 0.8 35
2019-09-28 21:00:00 21.5 4 Este 10 Noroeste 0 906.2 0.6 26
2019-09-28 20:00:00 23.8 6 Oeste 15 Oeste 0 905.6 -0.2 23
2019-09-28 19:00:00 26 9 Oeste 17 Noroeste 0 905.6 -0.6 19
2019-09-28 18:00:00 27 9 Oeste 19 Oeste 0 905.6 -1.1 17
2019-09-28 17:00:00 26.8 10 Oeste 21 Oeste 0 905.8 -1.5 19
2019-09-28 16:00:00 26.4 13 Oeste 23 Oeste 0 906.2 -1.4 22
2019-09-28 15:00:00 25.6 9 Oeste 20 Noroeste 0 906.7 -1.3 25
2019-09-28 14:00:00 24.7 10 Oeste 16 Oeste 0 907.3 -0.7 30
2019-09-28 13:00:00 22.7 4 Noroeste 10 Este 0 907.6 -0.1 38
2019-09-28 12:00:00 20.6 4 Este 10 Nordeste 0 908 0.7 46
2019-09-28 11:00:00 18.3 4 Este 7 Este 0 908 1 55
2019-09-28 10:00:00 15.4 4 Este 9 Este 0 907.7 0.8 60
2019-09-28 09:00:00 11.1 6 Este 11 Este 0 907.3 0.3 68
2019-09-28 08:00:00 9.6 6 Este 8 Nordeste 0 907 -0.1 70
2019-09-28 07:00:00 10.1 6 Este 9 Nordeste 0 906.9 -0.4 68
2019-09-28 06:00:00 10.7 6 Este 7 Este 0 907 -0.9 73
2019-09-28 05:00:00 11.5 5 Nordeste 8 Sudeste 0 907.1 -1 72
2019-09-28 04:00:00 12 5 Este 12 Sudeste 0 907.3 -0.9 71
2019-09-28 03:00:00 12.6 4 Este 6 Este 0 907.9 -0.2 65
2019-09-28 02:00:00 13 6 Este 8 Este 0 908.1 0.6 57
2019-09-28 01:00:00 13.8 5 Este 14 Sudeste 0 908.2 1 54
2019-09-28 00:00:00 14.3 5 Este 10 Este 0 908.1 1.4 47
2019-09-27 23:00:00 15.1 8 Nordeste 13 Nordeste 0 907.5 1.1 43
2019-09-27 22:00:00 16.6 5 Este 12 Sudeste 0 907.2 0.9 38
2019-09-27 21:00:00 19 3 Sudoeste 12 Oeste 0 906.7 0.6 32
2019-09-27 20:00:00 21.2 9 Oeste 22 Oeste 0 906.4 0.2 26
2019-09-27 19:00:00 23.5 12 Oeste 24 Oeste 0 906.3 0.2 20
2019-09-27 18:00:00 23.9 12 Oeste 28 Oeste 0 906.1 -0.3 22
2019-09-27 17:00:00 24.4 12 Oeste 30 Oeste 0 906.2 -0.7 27
2019-09-27 16:00:00 24.3 12 Oeste 25 Oeste 0 906.1 -1.2 23
2019-09-27 15:00:00 23.8 9 Oeste 22 Oeste 0 906.4 -1.3 25
2019-09-27 14:00:00 23.3 7 Oeste 14 Oeste 0 906.9 -0.8 26
2019-09-27 13:00:00 22 6 Sur 13 Sudoeste 0 907.3 0 30
2019-09-27 12:00:00 20 5 Sudoeste 12 Oeste 0 907.7 0.8 34
2019-09-27 11:00:00 18.3 4 Oeste 10 Oeste 0 907.7 1 41
2019-09-27 10:00:00 16.2 3 Nordeste 7 Este 0 907.3 0.4 47
2019-09-27 09:00:00 12.7 5 Este 7 Este 0 906.9 0 56
2019-09-27 08:00:00 11.3 6 Este 8 Este 0 906.7 0 59
2019-09-27 07:00:00 11.6 5 Este 9 Este 0 906.9 0 55
2019-09-27 06:00:00 12.1 6 Este 9 Sudeste 0 906.9 -0.2 53
2019-09-27 05:00:00 12.8 5 Este 10 Este 0 906.7 -0.6 50
2019-09-27 04:00:00 12.9 6 Este 9 Este 0 906.9 -0.5 51
2019-09-27 03:00:00 13.6 5 Este 8 Sudeste 0 907.1 -0.2 49
2019-09-27 02:00:00 14.2 4 Este 7 Este 0 907.3 0.2 49
2019-09-27 01:00:00 15.2 4 Este 9 Sudeste 0 907.4 0.7 45
2019-09-27 00:00:00 15.8 4 Este 10 Sudeste 0 907.3 1.3 49
2019-09-26 23:00:00 17 5 Este 7 Este 0 907.1 1.4 50
2019-09-26 22:00:00 18.5 6 Este 8 Este 0 906.7 1.2 46
2019-09-26 21:00:00 20.6 5 Oeste 10 Oeste 0 906 0.6 32
2019-09-26 20:00:00 22.5 6 Oeste 18 Oeste 0 905.7 0.4 34
2019-09-26 19:00:00 24.3 13 Oeste 28 Oeste 0 905.5 0 33
2019-09-26 18:00:00 25 17 Oeste 29 Oeste 0 905.4 -0.2 32
2019-09-26 17:00:00 25.7 17 Oeste 30 Oeste 0 905.3 -0.6 33
2019-09-26 16:00:00 26 13 Oeste 26 Oeste 0 905.5 -0.9 30
2019-09-26 15:00:00 25.1 9 Oeste 22 Oeste 0 905.6 -1.2 34
2019-09-26 14:00:00 23.9 13 Oeste 22 Oeste 0 905.9 -1 37
2019-09-26 13:00:00 21.6 8 Noroeste 15 Noroeste 0 906.4 -0.2 44
2019-09-26 12:00:00 19.3 3 Sudoeste 9 Oeste 0 906.8 0.8 51
2019-09-26 11:00:00 16.8 3 Sudoeste 8 Oeste 0 906.9 0.8 60
2019-09-26 10:00:00 14.8 3 Sudeste 7 Oeste 0 906.6 0.7 65
2019-09-26 09:00:00 11.9 5 Nordeste 7 Nordeste 0 906 0 70
2019-09-26 08:00:00 10.5 5 Este 10 Sudeste 0 906.1 0 78
2019-09-26 07:00:00 10.7 3 Este 6 Sudeste 0 905.9 -0.2 75
2019-09-26 06:00:00 11 5 Este 8 Este 0 906 -0.1 73
2019-09-26 05:00:00 11.1 5 Sur 10 Sudoeste 0 906.1 0 70
2019-09-26 04:00:00 11.7 9 Sudoeste 12 Sudoeste 0 906.1 -0.2 69
2019-09-26 03:00:00 12.9 5 Este 10 Sudeste 0 906.1 -0.1 64
2019-09-26 02:00:00 13.3 5 Nordeste 12 Este 0 906.1 -0.1 63
2019-09-26 01:00:00 13 6 Este 10 Sudeste 0 906.3 0.3 65
2019-09-26 00:00:00 13.6 5 Este 10 Sudeste 0 906.2 0.8 64
2019-09-25 23:00:00 14.5 7 Este 13 Sudeste 0 906.2 0.9 60
2019-09-25 22:00:00 16.1 3 Noroeste 10 Oeste 0 906 0.8 54
2019-09-25 21:00:00 17.2 6 Oeste 7 Oeste 0 905.4 0.4 50
2019-09-25 20:00:00 18.4 4 Noroeste 10 Oeste 0 905.3 0.1 46
2019-09-25 19:00:00 19.1 6 Noroeste 13 Noroeste 0 905.2 -0.2 43
2019-09-25 18:00:00 19.9 4 Oeste 17 Oeste 0 905 -0.8 41
2019-09-25 17:00:00 19.5 7 Norte 21 Noroeste 0 905.2 -1 42
2019-09-25 16:00:00 19 8 Oeste 17 Oeste 0 905.4 -1.3 44
2019-09-25 15:00:00 18.4 8 Oeste 17 Oeste 0 905.8 -1.1 45
2019-09-25 14:00:00 17.1 7 Sudoeste 21 Noroeste 0 906.2 -0.2 48
2019-09-25 13:00:00 15.7 6 Sudoeste 17 Oeste 0 906.7 0.7 54
2019-09-25 12:00:00 14.4 9 Oeste 15 Oeste 0 906.9 1.1 61
2019-09-25 11:00:00 13.8 5 Sudoeste 10 Sudoeste 0 906.4 1 67
2019-09-25 10:00:00 10.9 4 Oeste 11 Noroeste 0 906 0.7 81
2019-09-25 09:00:00 10.9 4 Oeste 8 Oeste 0 905.8 0.4 83
2019-09-25 08:00:00 10.7 3 Oeste 12 Noroeste 0 905.4 0.3 87
2019-09-25 07:00:00 11.2 9 Oeste 15 Oeste 0 905.3 -0.1 86
2019-09-25 06:00:00 12 6 Noroeste 14 Oeste 0 905.4 -0.3 82
2019-09-25 05:00:00 12.4 8 Oeste 17 Oeste 0 905.1 -0.6 78
2019-09-25 04:00:00 12.9 7 Oeste 17 Noroeste 0 905.4 -0.3 78
2019-09-25 03:00:00 13.3 9 Oeste 22 Oeste 0 905.7 -0.2 78
2019-09-25 02:00:00 14.1 13 Oeste 23 Oeste 0 905.7 0.2 80
2019-09-25 01:00:00 14.4 13 Oeste 17 Sudoeste 0 905.7 0.2 82
2019-09-25 00:00:00 15.3 8 Oeste 27 Oeste 0 905.9 0.7 82
2019-09-24 23:00:00 16.5 19 Oeste 30 Oeste 0 905.5 0.3 78
2019-09-24 22:00:00 17 15 Sudoeste 28 Sudoeste 0 905.5 0.5 78
2019-09-24 21:00:00 17.5 20 Sudoeste 30 Sudoeste 0 905.2 0.7 77
2019-09-24 20:00:00 17.5 21 Sudoeste 34 Oeste 0 905.2 0.5 80
2019-09-24 19:00:00 17.9 12 Oeste 37 Oeste 0 905 0 80
2019-09-24 18:00:00 20.5 20 Oeste 34 Noroeste 0 904.5 -0.8 66
2019-09-24 17:00:00 21.1 18 Oeste 31 Oeste 0 904.7 -1.4 62
2019-09-24 16:00:00 21 16 Oeste 28 Oeste 0 905 -1.8 61
2019-09-24 15:00:00 20.2 0 Calma 12 Oeste 0 905.3 -1.5 58
2019-09-24 14:00:00 19.9 10 Oeste 18 Sur 0 906.1 -0.7 53
2019-09-24 13:00:00 18.7 9 Oeste 30 Oeste 0 906.8 0.8 56
2019-09-24 12:00:00 19.3 15 Sudoeste 23 Oeste 0 906.8 1 42
2019-09-24 11:00:00 19.4 8 Oeste 13 Oeste 0 906.8 1.1 36
2019-09-24 10:00:00 17.8 5 Sudoeste 11 Sudeste 0 906 0.2 40
2019-09-24 09:00:00 12.6 7 Este 12 Nordeste 0 905.8 -0.1 61
2019-09-24 08:00:00 10.8 10 Este 14 Este 0 905.7 0 71
2019-09-24 07:00:00 11.1 6 Este 12 Este 0 905.8 -0.2 75
2019-09-24 06:00:00 11 5 Este 9 Este 0 905.9 -0.7 77
2019-09-24 05:00:00 11.7 6 Nordeste 8 Nordeste 0 905.7 -0.9 74
2019-09-24 04:00:00 12.6 5 Nordeste 8 Este 0 906 -0.8 70
2019-09-24 03:00:00 12.6 5 Nordeste 7 Nordeste 0 906.6 -0.5 70
2019-09-24 02:00:00 13.1 5 Este 8 Nordeste 0 906.6 -0.7 69
2019-09-24 01:00:00 14.1 5 Nordeste 13 Este 0 906.8 -0.4 66
2019-09-24 00:00:00 14.3 4 Este 8 Este 0 907.1 0.2 65
2019-09-23 23:00:00 15 8 Este 13 Sudeste 0 907.3 0.9 61
2019-09-23 22:00:00 15.9 11 Sudeste 14 Sudeste 0 907.2 0.9 57
2019-09-23 21:00:00 17.4 5 Sur 9 Oeste 0 906.9 0.6 50
2019-09-23 20:00:00 19.3 6 Oeste 13 Oeste 0 906.4 0 46
2019-09-23 19:00:00 20.9 8 Oeste 17 Sudoeste 0 906.3 0 40
2019-09-23 18:00:00 21.8 7 Oeste 19 Noroeste 0 906.3 -0.3 35
2019-09-23 17:00:00 21.5 12 Oeste 19 Oeste 0 906.4 -0.5 34
2019-09-23 16:00:00 21.8 11 Noroeste 24 Oeste 0 906.3 -0.6 33
2019-09-23 15:00:00 21 8 Oeste 17 Noroeste 0 906.6 -0.6 40
2019-09-23 14:00:00 20.1 8 Oeste 18 Oeste 0 906.9 0.1 44
2019-09-23 13:00:00 18.5 4 Sur 13 Noroeste 0 906.9 -0.2 51
2019-09-23 12:00:00 15.8 5 Noroeste 11 Oeste 0 907.2 0.3 62
2019-09-23 11:00:00 14.6 4 Sur 10 Sur 0 906.8 0.1 65
2019-09-23 10:00:00 12.2 4 Sur 6 Sur 0 907.1 1 72
2019-09-23 09:00:00 9.9 4 Este 9 Sudeste 0 906.9 1 77
2019-09-23 08:00:00 8.3 4 Este 10 Sudeste 0 906.7 1.1 81
2019-09-23 07:00:00 8.5 9 Sudeste 11 Sudeste 0 906.1 0.7 78
2019-09-23 06:00:00 8.8 4 Este 8 Este 0 905.9 0.4 74
2019-09-23 05:00:00 9.2 4 Este 8 Nordeste 0 905.6 0.4 74
2019-09-23 04:00:00 9.7 5 Este 12 Sudeste 0 905.4 -0.1 72
2019-09-23 03:00:00 10.3 8 Este 12 Este 0 905.5 0.5 73
2019-09-23 02:00:00 10.8 5 Este 12 Sudeste 0 905.2 0.2 74
2019-09-23 01:00:00 11 8 Sudeste 11 Sudeste 0 905.5 1 72
2019-09-23 00:00:00 11.5 5 Sudeste 14 Sudeste 0 905 1.3 70
2019-09-22 23:00:00 12.5 9 Sudeste 10 Sudeste 0 905 1.8 68
2019-09-22 22:00:00 13.3 3 Este 9 Sudoeste 0 904.5 1.3 64
2019-09-22 21:00:00 14.6 6 Sudoeste 12 Sudoeste 0 903.7 0.8 58
2019-09-22 20:00:00 16.3 12 Oeste 23 Oeste 0 903.2 0.6 51
2019-09-22 19:00:00 17.8 9 Oeste 30 Noroeste 0 903.2 0.5 46
2019-09-22 18:00:00 17.4 12 Oeste 25 Oeste 0 902.9 0.6 49
2019-09-22 17:00:00 18.2 17 Oeste 28 Oeste 0 902.6 0 51
2019-09-22 16:00:00 16.9 17 Oeste 28 Noroeste 0 902.7 0.1 61
2019-09-22 15:00:00 17.5 13 Oeste 23 Oeste 0 902.3 -0.3 52
2019-09-22 14:00:00 17 12 Oeste 22 Oeste 0 902.6 0.4 62
2019-09-22 13:00:00 15.7 10 Sudoeste 22 Oeste 0 902.6 0.6 64
2019-09-22 12:00:00 13.9 6 Oeste 13 Oeste 0 902.6 1.4 79
2019-09-22 11:00:00 12.9 4 Sudoeste 8 Sudoeste 0 902.2 1.2 86
2019-09-22 10:00:00 11.7 4 Oeste 11 Sudeste 0 902 1.4 93
2019-09-22 09:00:00 10.8 9 Sudeste 12 Sudeste 0.2 901.2 1.1 96
2019-09-22 08:00:00 10.7 4 Oeste 9 Sudoeste 1 901 1.3 95
2019-09-22 07:00:00 10.7 4 Noroeste 17 Oeste 0.8 900.6 2 95
2019-09-22 06:00:00 11.1 14 Oeste 31 Oeste 0 900.1 1.8 91
2019-09-22 05:00:00 11.9 17 Oeste 41 Oeste 0 899.7 1.6 92
2019-09-22 04:00:00 16.9 20 Sudoeste 38 Sur 0 898.6 0.5 72
2019-09-22 03:00:00 16.9 22 Sudoeste 46 Sur 0 898.3 -0.4 72
2019-09-22 02:00:00 16.8 26 Sur 51 Sudoeste 0 898.1 -0.7 72
2019-09-22 01:00:00 17.1 10 Sudoeste 34 Sur 0 898.1 -0.7 69
2019-09-22 00:00:00 16.9 22 Sur 39 Sur 0 898.7 -0.1 70
2019-09-21 23:00:00 17.2 12 Sudeste 26 Sur 0 898.8 0 66
2019-09-21 22:00:00 16.6 9 Sudoeste 31 Sudoeste 0 898.8 0.2 71
2019-09-21 21:00:00 15.9 15 Sudoeste 28 Sudoeste 0.2 898.8 -0.1 76
2019-09-21 20:00:00 17.6 17 Sudoeste 44 Sur 0 898.8 -0.2 69
2019-09-21 19:00:00 18.7 20 Sur 37 Sur 0 898.6 -0.7 64
2019-09-21 18:00:00 17.9 24 Sur 42 Sur 0 898.9 -0.5 69
2019-09-21 17:00:00 18.4 21 Sudoeste 41 Sur 0 899 -0.7 65
2019-09-21 16:00:00 18.2 20 Sudoeste 35 Sudoeste 0 899.3 -0.5 64
2019-09-21 15:00:00 18.6 7 Sudeste 27 Sur 0 899.4 -0.6 62
2019-09-21 14:00:00 19 17 Sur 41 Sudoeste 0 899.7 -0.1 58
2019-09-21 13:00:00 19.4 22 Sudoeste 36 Sudoeste 0 899.8 0.1 55
2019-09-21 12:00:00 18.6 16 Sur 27 Sur 0 900 0.1 57
2019-09-21 11:00:00 18.4 19 Sudoeste 34 Sudoeste 0 899.8 -0.1 58
2019-09-21 10:00:00 17.9 14 Sur 31 Sudoeste 0 899.7 -0.3 59
2019-09-21 09:00:00 15.1 8 Sudeste 17 Sur 0 899.9 0.1 70
2019-09-21 08:00:00 14.2 12 Sur 24 Sur 0 899.9 0.1 71
2019-09-21 07:00:00 14 14 Sur 21 Sur 0 900 -0.2 73
2019-09-21 06:00:00 14.5 10 Oeste 21 Sudoeste 0 899.8 -0.5 72
2019-09-21 05:00:00 15.3 13 Sur 27 Sur 0 899.8 -0.8 70
2019-09-21 04:00:00 16 14 Sudoeste 21 Sur 0 900.2 -0.2 73
2019-09-21 03:00:00 16.5 13 Sur 26 Sur 0 900.3 -0.7 74
2019-09-21 02:00:00 16.8 15 Sur 21 Sur 0 900.6 -0.6 76
2019-09-21 01:00:00 16.8 8 Sudeste 21 Sur 0 900.4 -0.3 75
2019-09-21 00:00:00 16.5 17 Sudeste 28 Sudeste 0 901 -0.3 75
2019-09-20 23:00:00 16.3 17 Sudeste 32 Sudeste 0.2 901.2 1.2 77
2019-09-20 22:00:00 15.9 12 Sudeste 33 Sudeste 1.4 900.7 0.6 80
2019-09-20 21:00:00 18.1 30 Sudeste 54 Sur 1 901.3 0.8 59
2019-09-20 20:00:00 21.5 20 Sudeste 39 Sudeste 0 900 -0.7 50
2019-09-20 19:00:00 22.5 25 Sudeste 35 Sudeste 0 900.1 -1.3 47
2019-09-20 18:00:00 23.7 22 Sudeste 35 Sur 0 900.5 -1.4 43
2019-09-20 17:00:00 23.8 16 Sudeste 32 Sudeste 0 900.7 -1.5 42
2019-09-20 16:00:00 23.1 13 Sudeste 37 Sudeste 0 901.4 -1 47
2019-09-20 15:00:00 22.5 21 Sudeste 34 Sudeste 0 901.9 -0.7 48
2019-09-20 14:00:00 22.9 22 Sudeste 36 Sudeste 0 902.2 -0.4 48
2019-09-20 13:00:00 23.5 21 Sudeste 34 Sur 0 902.4 -0.2 47
2019-09-20 12:00:00 23 18 Sudeste 29 Sudeste 0 902.6 0.3 46
2019-09-20 11:00:00 21.7 12 Sudeste 30 Sudeste 0 902.6 0.5 45
2019-09-20 10:00:00 21 10 Este 17 Este 0 902.6 0.6 51
2019-09-20 09:00:00 18.9 5 Este 13 Este 0 902.3 0.3 61
2019-09-20 08:00:00 19 7 Sur 22 Sudeste 0 902.1 -0.2 59
2019-09-20 07:00:00 19.1 11 Este 20 Sudeste 0 902 -0.6 59
2019-09-20 06:00:00 18.9 10 Este 25 Sudeste 0 902 -1.2 60
2019-09-20 05:00:00 19.3 14 Sudeste 25 Sudeste 0 902.3 -0.8 59
2019-09-20 04:00:00 19.5 14 Este 24 Este 0 902.6 -0.7 58
2019-09-20 03:00:00 19.6 17 Sudeste 30 Sudeste 0 903.2 -0.4 57
2019-09-20 02:00:00 20 18 Sudeste 29 Sudeste 0 903.1 -0.7 55
2019-09-20 01:00:00 18.1 10 Este 19 Este 0 903.3 -0.3 61
2019-09-20 00:00:00 17.7 9 Este 13 Este 0 903.6 0.5 65